sensor_id;sensor_type;location;lat;lon;timestamp;temperature;humidity
25410;DHT22;13339;50.840;4.346;2023-05-23T00:01:05;15.40;99.90
25410;DHT22;13339;50.840;4.346;2023-05-23T00:03:31;15.40;99.90
25410;DHT22;13339;50.840;4.346;2023-05-23T00:05:57;15.30;99.90
25410;DHT22;13339;50.840;4.346;2023-05-23T00:08:23;15.20;99.90
25410;DHT22;13339;50.840;4.346;2023-05-23T00:10:49;15.30;99.90
25410;DHT22;13339;50.840;4.346;2023-05-23T00:13:15;15.40;99.90
25410;DHT22;13339;50.840;4.346;2023-05-23T00:15:42;15.50;99.90
25410;DHT22;13339;50.840;4.346;2023-05-23T00:18:09;15.50;99.90
25410;DHT22;13339;50.840;4.346;2023-05-23T00:20:36;15.60;99.90
25410;DHT22;13339;50.840;4.346;2023-05-23T00:23:05;15.50;99.90
25410;DHT22;13339;50.840;4.346;2023-05-23T00:25:33;15.50;99.90
25410;DHT22;13339;50.840;4.346;2023-05-23T00:28:03;15.50;99.90
25410;DHT22;13339;50.840;4.346;2023-05-23T00:30:30;15.50;99.90
25410;DHT22;13339;50.840;4.346;2023-05-23T00:32:56;15.50;99.90
25410;DHT22;13339;50.840;4.346;2023-05-23T00:35:22;15.40;99.90
25410;DHT22;13339;50.840;4.346;2023-05-23T00:37:50;15.40;99.90
25410;DHT22;13339;50.840;4.346;2023-05-23T00:40:22;15.40;99.90
25410;DHT22;13339;50.840;4.346;2023-05-23T00:42:48;15.50;99.90
25410;DHT22;13339;50.840;4.346;2023-05-23T00:45:14;15.50;99.90
25410;DHT22;13339;50.840;4.346;2023-05-23T00:47:41;15.60;99.90
25410;DHT22;13339;50.840;4.346;2023-05-23T00:50:10;15.60;99.90
25410;DHT22;13339;50.840;4.346;2023-05-23T00:52:37;15.60;99.90
25410;DHT22;13339;50.840;4.346;2023-05-23T00:55:04;15.50;99.90
25410;DHT22;13339;50.840;4.346;2023-05-23T00:57:30;15.30;99.90
25410;DHT22;13339;50.840;4.346;2023-05-23T00:59:55;15.30;99.90
25410;DHT22;13339;50.840;4.346;2023-05-23T01:02:21;15.40;99.90
25410;DHT22;13339;50.840;4.346;2023-05-23T01:04:50;15.40;99.90
25410;DHT22;13339;50.840;4.346;2023-05-23T01:07:20;15.50;99.90
25410;DHT22;13339;50.840;4.346;2023-05-23T01:09:45;15.50;99.90
25410;DHT22;13339;50.840;4.346;2023-05-23T01:12:19;15.70;99.90
25410;DHT22;13339;50.840;4.346;2023-05-23T01:15:08;15.60;99.90
25410;DHT22;13339;50.840;4.346;2023-05-23T01:17:58;15.70;99.90
25410;DHT22;13339;50.840;4.346;2023-05-23T01:28:10;15.80;99.90
25410;DHT22;13339;50.840;4.346;2023-05-23T01:30:39;15.90;99.90
25410;DHT22;13339;50.840;4.346;2023-05-23T01:33:07;15.90;99.90
25410;DHT22;13339;50.840;4.346;2023-05-23T01:35:33;16.00;99.90
25410;DHT22;13339;50.840;4.346;2023-05-23T01:37:59;16.00;99.90
25410;DHT22;13339;50.840;4.346;2023-05-23T01:40:26;16.10;99.90
25410;DHT22;13339;50.840;4.346;2023-05-23T01:42:52;16.10;99.90
25410;DHT22;13339;50.840;4.346;2023-05-23T01:45:20;16.00;99.90
25410;DHT22;13339;50.840;4.346;2023-05-23T01:47:48;16.10;99.90
25410;DHT22;13339;50.840;4.346;2023-05-23T01:50:15;16.10;99.90
25410;DHT22;13339;50.840;4.346;2023-05-23T01:52:41;16.10;99.90
25410;DHT22;13339;50.840;4.346;2023-05-23T01:55:08;16.10;99.90
25410;DHT22;13339;50.840;4.346;2023-05-23T01:57:35;16.00;99.90
25410;DHT22;13339;50.840;4.346;2023-05-23T02:00:05;16.10;99.90
25410;DHT22;13339;50.840;4.346;2023-05-23T02:02:34;16.10;99.90
25410;DHT22;13339;50.840;4.346;2023-05-23T02:05:00;16.10;99.90
25410;DHT22;13339;50.840;4.346;2023-05-23T02:07:26;16.10;99.90
25410;DHT22;13339;50.840;4.346;2023-05-23T02:09:51;16.10;99.90
25410;DHT22;13339;50.840;4.346;2023-05-23T02:12:17;16.00;99.90
25410;DHT22;13339;50.840;4.346;2023-05-23T02:14:42;16.00;99.90
25410;DHT22;13339;50.840;4.346;2023-05-23T02:17:09;16.00;99.90
25410;DHT22;13339;50.840;4.346;2023-05-23T02:19:35;16.20;99.90
25410;DHT22;13339;50.840;4.346;2023-05-23T02:22:01;16.10;99.90
25410;DHT22;13339;50.840;4.346;2023-05-23T02:24:26;16.10;99.90
25410;DHT22;13339;50.840;4.346;2023-05-23T02:26:53;16.10;99.90
25410;DHT22;13339;50.840;4.346;2023-05-23T02:29:18;16.20;99.90
25410;DHT22;13339;50.840;4.346;2023-05-23T02:31:44;16.20;99.90
25410;DHT22;13339;50.840;4.346;2023-05-23T02:34:10;16.30;99.90
25410;DHT22;13339;50.840;4.346;2023-05-23T02:36:35;16.30;99.90
25410;DHT22;13339;50.840;4.346;2023-05-23T02:39:02;16.10;99.90
25410;DHT22;13339;50.840;4.346;2023-05-23T02:41:28;16.00;99.90
25410;DHT22;13339;50.840;4.346;2023-05-23T02:43:53;16.00;99.90
25410;DHT22;13339;50.840;4.346;2023-05-23T02:46:20;16.00;99.90
25410;DHT22;13339;50.840;4.346;2023-05-23T02:48:45;16.10;99.90
25410;DHT22;13339;50.840;4.346;2023-05-23T02:51:11;15.90;99.90
25410;DHT22;13339;50.840;4.346;2023-05-23T02:53:38;15.90;99.90
25410;DHT22;13339;50.840;4.346;2023-05-23T02:56:04;15.70;99.90
25410;DHT22;13339;50.840;4.346;2023-05-23T02:58:30;15.70;99.90
25410;DHT22;13339;50.840;4.346;2023-05-23T03:00:56;15.80;99.90
25410;DHT22;13339;50.840;4.346;2023-05-23T03:03:22;15.60;99.90
25410;DHT22;13339;50.840;4.346;2023-05-23T03:05:47;15.50;99.90
25410;DHT22;13339;50.840;4.346;2023-05-23T03:08:13;15.50;99.90
25410;DHT22;13339;50.840;4.346;2023-05-23T03:10:39;15.60;99.90
25410;DHT22;13339;50.840;4.346;2023-05-23T03:13:04;15.60;99.90
25410;DHT22;13339;50.840;4.346;2023-05-23T03:15:30;15.70;99.90
25410;DHT22;13339;50.840;4.346;2023-05-23T03:17:55;15.70;99.90
25410;DHT22;13339;50.840;4.346;2023-05-23T03:20:21;15.80;99.90
25410;DHT22;13339;50.840;4.346;2023-05-23T03:22:47;15.70;99.90
25410;DHT22;13339;50.840;4.346;2023-05-23T03:25:14;15.50;99.90
25410;DHT22;13339;50.840;4.346;2023-05-23T03:27:41;15.50;99.90
25410;DHT22;13339;50.840;4.346;2023-05-23T03:30:06;15.50;99.90
25410;DHT22;13339;50.840;4.346;2023-05-23T03:32:32;15.50;99.90
25410;DHT22;13339;50.840;4.346;2023-05-23T03:34:58;15.40;99.90
25410;DHT22;13339;50.840;4.346;2023-05-23T03:37:23;15.10;99.90
25410;DHT22;13339;50.840;4.346;2023-05-23T03:39:49;14.90;99.90
25410;DHT22;13339;50.840;4.346;2023-05-23T03:42:14;15.00;99.90
25410;DHT22;13339;50.840;4.346;2023-05-23T03:44:40;14.90;99.90
25410;DHT22;13339;50.840;4.346;2023-05-23T03:47:06;14.90;99.90
25410;DHT22;13339;50.840;4.346;2023-05-23T03:49:31;15.10;99.90
25410;DHT22;13339;50.840;4.346;2023-05-23T03:51:57;15.20;99.90
25410;DHT22;13339;50.840;4.346;2023-05-23T03:54:22;15.00;99.90
25410;DHT22;13339;50.840;4.346;2023-05-23T03:56:48;15.00;99.90
25410;DHT22;13339;50.840;4.346;2023-05-23T03:59:14;14.90;99.90
25410;DHT22;13339;50.840;4.346;2023-05-23T04:01:39;14.80;99.90
25410;DHT22;13339;50.840;4.346;2023-05-23T04:04:05;14.80;99.90
25410;DHT22;13339;50.840;4.346;2023-05-23T04:06:30;14.80;99.90
25410;DHT22;13339;50.840;4.346;2023-05-23T04:08:57;14.80;99.90
25410;DHT22;13339;50.840;4.346;2023-05-23T04:11:23;14.70;99.90
25410;DHT22;13339;50.840;4.346;2023-05-23T04:13:49;14.60;99.90
25410;DHT22;13339;50.840;4.346;2023-05-23T04:16:16;14.70;99.90
25410;DHT22;13339;50.840;4.346;2023-05-23T04:18:42;14.70;99.90
25410;DHT22;13339;50.840;4.346;2023-05-23T04:21:07;14.60;99.90
25410;DHT22;13339;50.840;4.346;2023-05-23T04:23:33;14.60;99.90
25410;DHT22;13339;50.840;4.346;2023-05-23T04:25:59;14.70;99.90
25410;DHT22;13339;50.840;4.346;2023-05-23T04:28:25;14.70;99.90
25410;DHT22;13339;50.840;4.346;2023-05-23T04:30:52;14.70;99.90
25410;DHT22;13339;50.840;4.346;2023-05-23T04:33:17;14.80;99.90
25410;DHT22;13339;50.840;4.346;2023-05-23T04:35:44;14.80;99.90
25410;DHT22;13339;50.840;4.346;2023-05-23T04:38:09;14.80;99.90
25410;DHT22;13339;50.840;4.346;2023-05-23T04:40:35;14.80;99.90
25410;DHT22;13339;50.840;4.346;2023-05-23T04:43:00;15.00;99.90
25410;DHT22;13339;50.840;4.346;2023-05-23T04:45:26;15.00;99.90
25410;DHT22;13339;50.840;4.346;2023-05-23T04:47:52;15.10;99.90
25410;DHT22;13339;50.840;4.346;2023-05-23T04:50:21;15.20;99.90
25410;DHT22;13339;50.840;4.346;2023-05-23T04:52:47;15.40;99.90
25410;DHT22;13339;50.840;4.346;2023-05-23T04:55:13;15.30;99.90
25410;DHT22;13339;50.840;4.346;2023-05-23T04:57:38;15.40;99.90
25410;DHT22;13339;50.840;4.346;2023-05-23T05:00:05;15.30;99.90
25410;DHT22;13339;50.840;4.346;2023-05-23T05:02:35;15.40;99.90
25410;DHT22;13339;50.840;4.346;2023-05-23T05:05:02;15.30;99.90
25410;DHT22;13339;50.840;4.346;2023-05-23T05:07:28;15.40;99.90
25410;DHT22;13339;50.840;4.346;2023-05-23T05:09:54;15.40;99.90
25410;DHT22;13339;50.840;4.346;2023-05-23T05:12:20;15.60;99.90
25410;DHT22;13339;50.840;4.346;2023-05-23T05:14:45;15.80;99.90
25410;DHT22;13339;50.840;4.346;2023-05-23T05:17:11;15.80;99.90
25410;DHT22;13339;50.840;4.346;2023-05-23T05:19:37;15.80;99.90
25410;DHT22;13339;50.840;4.346;2023-05-23T05:22:03;15.80;99.90
25410;DHT22;13339;50.840;4.346;2023-05-23T05:24:29;15.90;99.90
25410;DHT22;13339;50.840;4.346;2023-05-23T05:26:55;15.90;99.90
25410;DHT22;13339;50.840;4.346;2023-05-23T05:29:21;15.80;99.90
25410;DHT22;13339;50.840;4.346;2023-05-23T05:31:46;15.70;99.90
25410;DHT22;13339;50.840;4.346;2023-05-23T05:34:13;15.70;99.90
25410;DHT22;13339;50.840;4.346;2023-05-23T05:36:39;15.60;99.90
25410;DHT22;13339;50.840;4.346;2023-05-23T05:39:11;15.40;99.90
25410;DHT22;13339;50.840;4.346;2023-05-23T05:41:38;15.10;99.90
25410;DHT22;13339;50.840;4.346;2023-05-23T05:44:05;14.90;99.90
25410;DHT22;13339;50.840;4.346;2023-05-23T05:46:30;14.90;99.90
25410;DHT22;13339;50.840;4.346;2023-05-23T05:48:56;15.10;99.90
25410;DHT22;13339;50.840;4.346;2023-05-23T05:51:21;15.20;99.90
25410;DHT22;13339;50.840;4.346;2023-05-23T05:53:47;15.30;99.90
25410;DHT22;13339;50.840;4.346;2023-05-23T05:56:14;15.30;99.90
25410;DHT22;13339;50.840;4.346;2023-05-23T05:58:39;15.30;99.90
25410;DHT22;13339;50.840;4.346;2023-05-23T06:01:05;15.20;99.90
25410;DHT22;13339;50.840;4.346;2023-05-23T06:03:31;15.20;99.90
25410;DHT22;13339;50.840;4.346;2023-05-23T06:05:57;15.20;99.90
25410;DHT22;13339;50.840;4.346;2023-05-23T06:08:22;15.20;99.90
25410;DHT22;13339;50.840;4.346;2023-05-23T06:10:48;15.20;99.90
25410;DHT22;13339;50.840;4.346;2023-05-23T06:13:13;15.00;99.90
25410;DHT22;13339;50.840;4.346;2023-05-23T06:15:39;15.10;99.90
25410;DHT22;13339;50.840;4.346;2023-05-23T06:18:05;15.20;99.90
25410;DHT22;13339;50.840;4.346;2023-05-23T06:20:31;15.10;99.90
25410;DHT22;13339;50.840;4.346;2023-05-23T06:22:56;15.20;99.90
25410;DHT22;13339;50.840;4.346;2023-05-23T06:25:22;15.00;99.90
25410;DHT22;13339;50.840;4.346;2023-05-23T06:27:47;14.90;99.90
25410;DHT22;13339;50.840;4.346;2023-05-23T06:30:14;14.80;99.90
25410;DHT22;13339;50.840;4.346;2023-05-23T06:32:40;14.90;99.90
25410;DHT22;13339;50.840;4.346;2023-05-23T06:35:06;14.90;99.90
25410;DHT22;13339;50.840;4.346;2023-05-23T06:37:31;14.90;99.90
25410;DHT22;13339;50.840;4.346;2023-05-23T06:39:57;14.90;99.90
25410;DHT22;13339;50.840;4.346;2023-05-23T06:42:23;15.00;99.90
25410;DHT22;13339;50.840;4.346;2023-05-23T06:44:48;15.00;99.90
25410;DHT22;13339;50.840;4.346;2023-05-23T06:47:14;15.00;99.90
25410;DHT22;13339;50.840;4.346;2023-05-23T06:49:39;14.90;99.90
25410;DHT22;13339;50.840;4.346;2023-05-23T06:52:05;14.90;99.90
25410;DHT22;13339;50.840;4.346;2023-05-23T06:54:31;14.90;99.90
25410;DHT22;13339;50.840;4.346;2023-05-23T06:56:56;15.10;99.90
25410;DHT22;13339;50.840;4.346;2023-05-23T06:59:22;15.10;99.90
25410;DHT22;13339;50.840;4.346;2023-05-23T07:01:47;15.00;99.90
25410;DHT22;13339;50.840;4.346;2023-05-23T07:04:13;15.10;99.90
25410;DHT22;13339;50.840;4.346;2023-05-23T07:06:39;15.20;99.90
25410;DHT22;13339;50.840;4.346;2023-05-23T07:09:04;15.00;99.90
25410;DHT22;13339;50.840;4.346;2023-05-23T07:11:30;15.00;99.90
25410;DHT22;13339;50.840;4.346;2023-05-23T07:13:56;14.80;99.90
25410;DHT22;13339;50.840;4.346;2023-05-23T07:16:21;14.70;99.90
25410;DHT22;13339;50.840;4.346;2023-05-23T07:18:47;14.50;99.90
25410;DHT22;13339;50.840;4.346;2023-05-23T07:21:12;14.40;99.90
25410;DHT22;13339;50.840;4.346;2023-05-23T07:23:39;14.40;99.90
25410;DHT22;13339;50.840;4.346;2023-05-23T07:26:05;14.50;99.90
25410;DHT22;13339;50.840;4.346;2023-05-23T07:28:34;14.70;99.90
25410;DHT22;13339;50.840;4.346;2023-05-23T07:30:59;14.90;99.90
25410;DHT22;13339;50.840;4.346;2023-05-23T07:33:25;15.00;99.90
25410;DHT22;13339;50.840;4.346;2023-05-23T07:35:51;15.10;99.90
25410;DHT22;13339;50.840;4.346;2023-05-23T07:38:16;15.30;99.90
25410;DHT22;13339;50.840;4.346;2023-05-23T07:40:42;15.30;99.90
25410;DHT22;13339;50.840;4.346;2023-05-23T07:43:08;15.30;99.90
25410;DHT22;13339;50.840;4.346;2023-05-23T07:45:33;15.50;99.90
25410;DHT22;13339;50.840;4.346;2023-05-23T07:47:59;15.70;99.90
25410;DHT22;13339;50.840;4.346;2023-05-23T07:50:24;15.90;99.90
25410;DHT22;13339;50.840;4.346;2023-05-23T07:52:52;15.80;99.90
25410;DHT22;13339;50.840;4.346;2023-05-23T07:55:18;15.90;99.90
25410;DHT22;13339;50.840;4.346;2023-05-23T07:57:43;16.10;99.90
25410;DHT22;13339;50.840;4.346;2023-05-23T08:00:09;16.20;99.90
25410;DHT22;13339;50.840;4.346;2023-05-23T08:02:36;16.40;99.90
25410;DHT22;13339;50.840;4.346;2023-05-23T08:05:02;16.20;99.90
25410;DHT22;13339;50.840;4.346;2023-05-23T08:07:27;16.30;99.90
25410;DHT22;13339;50.840;4.346;2023-05-23T08:09:53;16.20;99.90
25410;DHT22;13339;50.840;4.346;2023-05-23T08:12:18;16.70;99.90
25410;DHT22;13339;50.840;4.346;2023-05-23T08:14:44;17.10;99.90
25410;DHT22;13339;50.840;4.346;2023-05-23T08:17:11;17.40;99.90
25410;DHT22;13339;50.840;4.346;2023-05-23T08:19:37;17.70;99.90
25410;DHT22;13339;50.840;4.346;2023-05-23T08:22:04;17.60;99.90
25410;DHT22;13339;50.840;4.346;2023-05-23T08:24:30;17.50;99.90
25410;DHT22;13339;50.840;4.346;2023-05-23T08:26:56;17.40;99.90
25410;DHT22;13339;50.840;4.346;2023-05-23T08:29:21;17.30;99.90
25410;DHT22;13339;50.840;4.346;2023-05-23T08:31:47;17.20;99.90
25410;DHT22;13339;50.840;4.346;2023-05-23T08:34:13;17.20;99.90
25410;DHT22;13339;50.840;4.346;2023-05-23T08:36:39;17.00;99.90
25410;DHT22;13339;50.840;4.346;2023-05-23T08:39:04;16.90;99.90
25410;DHT22;13339;50.840;4.346;2023-05-23T08:41:30;17.00;99.90
25410;DHT22;13339;50.840;4.346;2023-05-23T08:43:56;17.00;99.90
25410;DHT22;13339;50.840;4.346;2023-05-23T08:46:23;17.00;99.90
25410;DHT22;13339;50.840;4.346;2023-05-23T08:48:53;17.10;99.90
25410;DHT22;13339;50.840;4.346;2023-05-23T08:51:24;17.10;99.90
25410;DHT22;13339;50.840;4.346;2023-05-23T08:53:50;17.00;99.90
25410;DHT22;13339;50.840;4.346;2023-05-23T08:56:18;17.10;99.90
25410;DHT22;13339;50.840;4.346;2023-05-23T08:58:44;16.90;99.90
25410;DHT22;13339;50.840;4.346;2023-05-23T09:01:12;16.80;99.90
25410;DHT22;13339;50.840;4.346;2023-05-23T09:03:39;16.90;99.90
25410;DHT22;13339;50.840;4.346;2023-05-23T09:06:08;17.00;99.90
25410;DHT22;13339;50.840;4.346;2023-05-23T09:08:34;16.90;99.90
25410;DHT22;13339;50.840;4.346;2023-05-23T09:11:03;16.90;99.90
25410;DHT22;13339;50.840;4.346;2023-05-23T09:13:30;16.70;99.90
25410;DHT22;13339;50.840;4.346;2023-05-23T09:16:09;16.40;99.90
25410;DHT22;13339;50.840;4.346;2023-05-23T09:18:37;16.20;99.90
25410;DHT22;13339;50.840;4.346;2023-05-23T09:21:03;16.20;99.90
25410;DHT22;13339;50.840;4.346;2023-05-23T09:23:33;16.00;99.90
25410;DHT22;13339;50.840;4.346;2023-05-23T09:26:03;16.10;99.90
25410;DHT22;13339;50.840;4.346;2023-05-23T09:28:30;16.30;99.90
25410;DHT22;13339;50.840;4.346;2023-05-23T09:30:59;16.40;99.90
25410;DHT22;13339;50.840;4.346;2023-05-23T09:33:37;16.50;99.90
25410;DHT22;13339;50.840;4.346;2023-05-23T09:36:04;16.60;99.90
25410;DHT22;13339;50.840;4.346;2023-05-23T09:38:30;16.80;99.90
25410;DHT22;13339;50.840;4.346;2023-05-23T09:40:58;16.80;99.90
25410;DHT22;13339;50.840;4.346;2023-05-23T09:43:23;16.80;99.90
25410;DHT22;13339;50.840;4.346;2023-05-23T09:45:49;16.60;99.90
25410;DHT22;13339;50.840;4.346;2023-05-23T09:48:15;16.40;99.90
25410;DHT22;13339;50.840;4.346;2023-05-23T09:50:41;16.30;99.90
25410;DHT22;13339;50.840;4.346;2023-05-23T09:53:10;16.30;99.90
25410;DHT22;13339;50.840;4.346;2023-05-23T09:55:35;16.60;99.90
25410;DHT22;13339;50.840;4.346;2023-05-23T09:58:01;16.60;99.90
25410;DHT22;13339;50.840;4.346;2023-05-23T10:00:28;16.60;99.90
25410;DHT22;13339;50.840;4.346;2023-05-23T10:03:00;16.40;99.90
25410;DHT22;13339;50.840;4.346;2023-05-23T10:05:49;16.40;99.90
25410;DHT22;13339;50.840;4.346;2023-05-23T10:08:20;16.60;99.90
25410;DHT22;13339;50.840;4.346;2023-05-23T10:13:25;16.70;99.90
25410;DHT22;13339;50.840;4.346;2023-05-23T10:16:02;17.00;99.90
25410;DHT22;13339;50.840;4.346;2023-05-23T10:18:37;16.90;99.90
25410;DHT22;13339;50.840;4.346;2023-05-23T10:21:08;16.80;99.90
25410;DHT22;13339;50.840;4.346;2023-05-23T10:23:36;16.70;99.90
25410;DHT22;13339;50.840;4.346;2023-05-23T10:26:03;16.70;99.90
25410;DHT22;13339;50.840;4.346;2023-05-23T10:28:30;16.40;99.90
25410;DHT22;13339;50.840;4.346;2023-05-23T10:30:57;16.40;99.90
25410;DHT22;13339;50.840;4.346;2023-05-23T10:33:26;16.70;99.90
25410;DHT22;13339;50.840;4.346;2023-05-23T10:38:50;17.00;99.90
25410;DHT22;13339;50.840;4.346;2023-05-23T10:41:35;17.00;99.90
25410;DHT22;13339;50.840;4.346;2023-05-23T10:44:22;17.00;99.90
25410;DHT22;13339;50.840;4.346;2023-05-23T10:46:54;17.30;99.90
25410;DHT22;13339;50.840;4.346;2023-05-23T10:49:20;17.30;99.90
25410;DHT22;13339;50.840;4.346;2023-05-23T10:51:50;17.50;99.90
25410;DHT22;13339;50.840;4.346;2023-05-23T10:54:18;17.30;99.90
25410;DHT22;13339;50.840;4.346;2023-05-23T10:56:53;17.30;99.90
25410;DHT22;13339;50.840;4.346;2023-05-23T10:59:27;17.30;99.90
25410;DHT22;13339;50.840;4.346;2023-05-23T11:01:54;17.50;99.90
25410;DHT22;13339;50.840;4.346;2023-05-23T11:04:27;17.70;99.90
25410;DHT22;13339;50.840;4.346;2023-05-23T11:06:54;17.70;99.90
25410;DHT22;13339;50.840;4.346;2023-05-23T11:09:22;17.70;99.90
25410;DHT22;13339;50.840;4.346;2023-05-23T11:14:17;18.10;99.90
25410;DHT22;13339;50.840;4.346;2023-05-23T11:16:44;18.20;99.90
25410;DHT22;13339;50.840;4.346;2023-05-23T11:21:58;18.30;99.90
25410;DHT22;13339;50.840;4.346;2023-05-23T11:24:48;18.30;99.90
25410;DHT22;13339;50.840;4.346;2023-05-23T11:27:34;18.00;99.90
25410;DHT22;13339;50.840;4.346;2023-05-23T11:30:11;18.10;99.90
25410;DHT22;13339;50.840;4.346;2023-05-23T11:32:38;18.40;99.90
25410;DHT22;13339;50.840;4.346;2023-05-23T11:35:05;18.60;99.90
25410;DHT22;13339;50.840;4.346;2023-05-23T11:37:31;18.60;99.90
25410;DHT22;13339;50.840;4.346;2023-05-23T11:39:57;18.80;99.90
25410;DHT22;13339;50.840;4.346;2023-05-23T11:42:23;18.90;99.90
25410;DHT22;13339;50.840;4.346;2023-05-23T11:44:50;19.10;99.90
25410;DHT22;13339;50.840;4.346;2023-05-23T11:47:16;19.10;99.90
25410;DHT22;13339;50.840;4.346;2023-05-23T11:49:44;18.90;99.90
25410;DHT22;13339;50.840;4.346;2023-05-23T11:52:11;18.80;99.90
25410;DHT22;13339;50.840;4.346;2023-05-23T11:54:39;18.50;99.90
25410;DHT22;13339;50.840;4.346;2023-05-23T11:57:06;18.40;99.90
25410;DHT22;13339;50.840;4.346;2023-05-23T11:59:33;18.60;99.90
25410;DHT22;13339;50.840;4.346;2023-05-23T12:02:00;18.80;99.90
25410;DHT22;13339;50.840;4.346;2023-05-23T12:04:26;18.90;99.90
25410;DHT22;13339;50.840;4.346;2023-05-23T12:06:52;19.00;99.90
25410;DHT22;13339;50.840;4.346;2023-05-23T12:09:18;18.90;99.90
25410;DHT22;13339;50.840;4.346;2023-05-23T12:11:44;18.90;99.90
25410;DHT22;13339;50.840;4.346;2023-05-23T12:14:14;18.90;99.90
25410;DHT22;13339;50.840;4.346;2023-05-23T12:16:42;18.80;99.90
25410;DHT22;13339;50.840;4.346;2023-05-23T12:19:09;18.80;99.90
25410;DHT22;13339;50.840;4.346;2023-05-23T12:21:42;19.00;99.90
25410;DHT22;13339;50.840;4.346;2023-05-23T12:24:19;19.30;99.90
25410;DHT22;13339;50.840;4.346;2023-05-23T12:29:17;19.40;99.90
25410;DHT22;13339;50.840;4.346;2023-05-23T12:31:43;19.10;99.90
25410;DHT22;13339;50.840;4.346;2023-05-23T12:34:10;18.90;99.90
25410;DHT22;13339;50.840;4.346;2023-05-23T12:36:36;18.90;99.90
25410;DHT22;13339;50.840;4.346;2023-05-23T12:39:04;19.20;99.90
25410;DHT22;13339;50.840;4.346;2023-05-23T12:41:34;19.50;99.90
25410;DHT22;13339;50.840;4.346;2023-05-23T12:44:01;19.50;99.90
25410;DHT22;13339;50.840;4.346;2023-05-23T12:46:27;19.60;99.90
25410;DHT22;13339;50.840;4.346;2023-05-23T12:48:53;19.70;99.90
25410;DHT22;13339;50.840;4.346;2023-05-23T12:51:19;19.80;99.90
25410;DHT22;13339;50.840;4.346;2023-05-23T12:53:46;19.50;99.90
25410;DHT22;13339;50.840;4.346;2023-05-23T12:56:11;19.10;99.90
25410;DHT22;13339;50.840;4.346;2023-05-23T12:58:37;18.90;99.90
25410;DHT22;13339;50.840;4.346;2023-05-23T13:01:03;19.00;99.90
25410;DHT22;13339;50.840;4.346;2023-05-23T13:03:29;18.60;99.90
25410;DHT22;13339;50.840;4.346;2023-05-23T13:05:58;18.60;99.90
25410;DHT22;13339;50.840;4.346;2023-05-23T13:08:25;18.80;99.90
25410;DHT22;13339;50.840;4.346;2023-05-23T13:10:52;19.10;99.90
25410;DHT22;13339;50.840;4.346;2023-05-23T13:13:18;19.40;99.90
25410;DHT22;13339;50.840;4.346;2023-05-23T13:15:44;19.70;99.90
25410;DHT22;13339;50.840;4.346;2023-05-23T13:18:10;19.80;99.90
25410;DHT22;13339;50.840;4.346;2023-05-23T13:20:35;19.80;99.90
25410;DHT22;13339;50.840;4.346;2023-05-23T13:23:02;19.60;99.90
25410;DHT22;13339;50.840;4.346;2023-05-23T13:25:27;19.20;99.90
25410;DHT22;13339;50.840;4.346;2023-05-23T13:27:53;19.10;99.90
25410;DHT22;13339;50.840;4.346;2023-05-23T13:30:19;18.50;99.90
25410;DHT22;13339;50.840;4.346;2023-05-23T13:32:45;18.50;99.90
25410;DHT22;13339;50.840;4.346;2023-05-23T13:35:11;18.70;99.90
25410;DHT22;13339;50.840;4.346;2023-05-23T13:37:37;19.00;99.90
25410;DHT22;13339;50.840;4.346;2023-05-23T13:40:03;19.00;99.90
25410;DHT22;13339;50.840;4.346;2023-05-23T13:42:29;19.00;99.90
25410;DHT22;13339;50.840;4.346;2023-05-23T13:44:55;19.20;99.90
25410;DHT22;13339;50.840;4.346;2023-05-23T13:47:21;19.20;99.90
25410;DHT22;13339;50.840;4.346;2023-05-23T13:49:46;19.20;99.90
25410;DHT22;13339;50.840;4.346;2023-05-23T13:52:12;19.40;99.90
25410;DHT22;13339;50.840;4.346;2023-05-23T13:54:38;19.50;99.90
25410;DHT22;13339;50.840;4.346;2023-05-23T13:57:04;19.60;99.90
25410;DHT22;13339;50.840;4.346;2023-05-23T13:59:30;19.60;99.90
25410;DHT22;13339;50.840;4.346;2023-05-23T14:01:55;19.80;99.90
25410;DHT22;13339;50.840;4.346;2023-05-23T14:04:21;19.50;99.90
25410;DHT22;13339;50.840;4.346;2023-05-23T14:06:47;19.20;99.90
25410;DHT22;13339;50.840;4.346;2023-05-23T14:09:13;19.10;99.90
25410;DHT22;13339;50.840;4.346;2023-05-23T14:11:39;19.00;99.90
25410;DHT22;13339;50.840;4.346;2023-05-23T14:14:05;18.90;99.90
25410;DHT22;13339;50.840;4.346;2023-05-23T14:16:30;19.00;99.90
25410;DHT22;13339;50.840;4.346;2023-05-23T14:18:56;19.20;99.90
25410;DHT22;13339;50.840;4.346;2023-05-23T14:21:22;19.30;99.90
25410;DHT22;13339;50.840;4.346;2023-05-23T14:23:48;19.20;99.90
25410;DHT22;13339;50.840;4.346;2023-05-23T14:26:14;19.30;99.90
25410;DHT22;13339;50.840;4.346;2023-05-23T14:28:39;19.40;99.90
25410;DHT22;13339;50.840;4.346;2023-05-23T14:31:05;19.50;99.90
25410;DHT22;13339;50.840;4.346;2023-05-23T14:33:31;19.70;99.90
25410;DHT22;13339;50.840;4.346;2023-05-23T14:35:58;19.80;99.90
25410;DHT22;13339;50.840;4.346;2023-05-23T14:38:23;19.90;99.90
25410;DHT22;13339;50.840;4.346;2023-05-23T14:40:49;19.80;99.90
25410;DHT22;13339;50.840;4.346;2023-05-23T14:43:15;19.90;99.90
25410;DHT22;13339;50.840;4.346;2023-05-23T14:45:41;19.80;99.90
25410;DHT22;13339;50.840;4.346;2023-05-23T14:48:08;19.60;99.90
25410;DHT22;13339;50.840;4.346;2023-05-23T14:50:33;19.40;99.90
25410;DHT22;13339;50.840;4.346;2023-05-23T14:52:59;19.20;99.90
25410;DHT22;13339;50.840;4.346;2023-05-23T14:55:25;19.20;99.90
25410;DHT22;13339;50.840;4.346;2023-05-23T14:57:50;19.20;99.90
25410;DHT22;13339;50.840;4.346;2023-05-23T15:00:17;19.40;99.90
25410;DHT22;13339;50.840;4.346;2023-05-23T15:02:44;19.50;99.90
25410;DHT22;13339;50.840;4.346;2023-05-23T15:05:11;19.60;99.90
25410;DHT22;13339;50.840;4.346;2023-05-23T15:07:36;19.40;99.90
25410;DHT22;13339;50.840;4.346;2023-05-23T15:10:04;19.40;99.90
25410;DHT22;13339;50.840;4.346;2023-05-23T15:12:30;19.60;99.90
25410;DHT22;13339;50.840;4.346;2023-05-23T15:14:56;19.10;99.90
25410;DHT22;13339;50.840;4.346;2023-05-23T15:17:28;18.80;99.90
25410;DHT22;13339;50.840;4.346;2023-05-23T15:19:53;18.90;99.90
25410;DHT22;13339;50.840;4.346;2023-05-23T15:22:19;18.90;99.90
25410;DHT22;13339;50.840;4.346;2023-05-23T15:24:45;18.70;99.90
25410;DHT22;13339;50.840;4.346;2023-05-23T15:27:10;18.80;99.90
25410;DHT22;13339;50.840;4.346;2023-05-23T15:29:37;18.90;99.90
25410;DHT22;13339;50.840;4.346;2023-05-23T15:32:05;18.90;99.90
25410;DHT22;13339;50.840;4.346;2023-05-23T15:34:31;19.00;99.90
25410;DHT22;13339;50.840;4.346;2023-05-23T15:36:56;19.10;99.90
25410;DHT22;13339;50.840;4.346;2023-05-23T15:39:22;19.10;99.90
25410;DHT22;13339;50.840;4.346;2023-05-23T15:41:48;18.80;99.90
25410;DHT22;13339;50.840;4.346;2023-05-23T15:44:13;18.80;99.90
25410;DHT22;13339;50.840;4.346;2023-05-23T15:46:42;18.70;99.90
25410;DHT22;13339;50.840;4.346;2023-05-23T15:49:08;18.70;99.90